Willmar, MN

6:42 AM CDT on August 30, 2016 (GMT -0500)
Eagle's Landing | | Change Station

Elev 1155 ft 45.16 °N, 95.04 °W | Updated 10 minutes ago

Mostly Cloudy
Mostly Cloudy
65.7 °F
Feels Like 65.7 °F
N
0.0
Wind Variable Wind from SE

Today
High -- | Low -- °F
--% Chance of Precip.
Yesterday
High -- | Low -- °F
Precip. -- in
Pressure 30.20 in
Visibility 5.0 miles
Clouds Mostly Cloudy 1600 ft
Dew Point 64 °F
Humidity 95%
Rainfall 0.05 in
Snow Depth Not available.
6:40 AM 8:00 PM
Waning Crescent, 4% visible
METAR KBDH 301136Z AUTO 00000KT 5SM BR BKN016 19/18 A3020 RMK AO2
Pressure 30.20 in
Visibility 5.0 miles
Clouds Mostly Cloudy 1600 ft
Dew Point 64 °F
Humidity 95%
Rainfall 0.05 in
Snow Depth Not available.
6:40 AM 8:00 PM
Waning Crescent, 4% visible
METAR KBDH 301136Z AUTO 00000KT 5SM BR BKN016 19/18 A3020 RMK AO2

10-Day Weather Forecast

Almanac

Astronomy

Aug. 30, 2016 Rise Set
Actual Time
Civil Twilight
Nautical Twilight
Astronomical Twilight
Moon
Length of Visible Light
Length of Day
Tomorrow will be .
, % of the Moon is Illuminated

Today's Extremes

State Highs State Lows

Community

WunderPhotos

Upload Photos

1,935,814 photos uploaded!

WunderBlog® & News

Nearby

Air Quality

  Air Quality AQ Index Pollutant
Not available.

Snow Depth

Station Depth Elevation

Earthquake Activity

City Distance Mag. Time & Date
Minimum magnitude displayed is 2.5.

Coastal Water Temperatures

Place Temperature

Stations

Nearby Weather Stations

Station Location Temp. Windchill Dew Point Humidity Wind Precip. Elev Updated Type
                   

Watches & Warnings

There are currently no watches in effect.